Terminal Aerodrome Forecast
Issued by NWS

Home | Current Version | Previous Version | Graphics & Text | Print | Product List | Glossary On
Versions: 1 2 3 4 5 6 7 8 9 10 11 12 13 14 15 16 17
000
FTUS43 KBIS 271734
TAFDIK
TAF
KDIK 271734Z 2718/2818 11014G23KT P6SM SCT100
     FM272200 15018G25KT P6SM VCTS BKN050CB BKN150
     FM280000 15018G28KT 5SM SHRA VCTS OVC050CB
     FM280600 27018G30KT P6SM VCSH BKN035
     FM281500 26035G48KT P6SM BKN050=

USA.gov is the U.S. government's official web portal to all federal, state and local government web resources and services.